createdAt,value
2017-04-16T00:00:52.970Z,8
2017-04-16T00:01:55.304Z,8
2017-04-16T00:02:57.641Z,8
2017-04-16T00:04:00.478Z,8
2017-04-16T00:05:02.817Z,8
2017-04-16T00:06:05.640Z,8
2017-04-16T00:07:08.341Z,8
2017-04-16T00:08:10.681Z,8
2017-04-16T00:09:13.552Z,7.9
2017-04-16T00:10:16.394Z,7.9
2017-04-16T00:11:18.985Z,7.9
2017-04-16T00:12:21.314Z,7.9
2017-04-16T00:13:24.155Z,7.8
2017-04-16T00:14:26.488Z,7.9
2017-04-16T00:15:29.321Z,7.9
2017-04-16T00:16:32.273Z,7.9
2017-04-16T00:17:34.614Z,7.9
2017-04-16T00:18:36.953Z,7.9
2017-04-16T00:19:39.796Z,7.8
2017-04-16T00:20:42.637Z,7.8
2017-04-16T00:21:45.277Z,7.8
2017-04-16T00:22:47.613Z,7.8
2017-04-16T00:24:53.019Z,7.8
2017-04-16T00:25:55.357Z,7.8
2017-04-16T00:26:58.499Z,7.7
2017-04-16T00:28:00.837Z,7.7
2017-04-16T00:29:03.177Z,7.7
2017-04-16T00:30:06.030Z,7.7
2017-04-16T00:31:08.736Z,7.7
2017-04-16T00:32:11.374Z,7.7
2017-04-16T00:33:13.711Z,7.6
2017-04-16T00:34:16.554Z,7.6
2017-04-16T00:35:19.399Z,7.6
2017-04-16T00:36:21.739Z,7.6
2017-04-16T00:37:24.877Z,7.6
2017-04-16T00:38:27.241Z,7.5
2017-04-16T00:39:29.788Z,7.6
2017-04-16T00:40:32.116Z,7.6
2017-04-16T00:41:34.826Z,7.6
2017-04-16T00:42:37.918Z,7.6
2017-04-16T00:43:40.117Z,7.6
2017-04-16T00:44:42.821Z,7.6
2017-04-16T00:45:45.154Z,7.5
2017-04-16T00:46:47.994Z,7.5
2017-04-16T00:47:51.100Z,7.5
2017-04-16T00:49:55.850Z,7.5
2017-04-16T00:50:58.684Z,7.4
2017-04-16T00:52:01.023Z,7.5
2017-04-16T00:53:04.159Z,7.5
2017-04-16T00:54:06.513Z,7.4
2017-04-16T00:55:08.854Z,7.4
2017-04-16T00:56:11.692Z,7.4
2017-04-16T00:57:14.028Z,7.4
2017-04-16T00:58:17.132Z,7.4
2017-04-16T00:59:19.465Z,7.4
2017-04-16T01:00:22.308Z,7.4
2017-04-16T01:01:24.645Z,7.4
2017-04-16T01:02:27.483Z,7.4
2017-04-16T01:03:29.992Z,7.4
2017-04-16T01:04:32.334Z,7.3
2017-04-16T01:05:35.173Z,7.3
2017-04-16T01:07:40.419Z,7.3
2017-04-16T01:08:44.084Z,7.4
2017-04-16T01:09:45.421Z,7.4
2017-04-16T01:10:48.262Z,7.4
2017-04-16T01:11:51.104Z,7.3
2017-04-16T01:12:53.440Z,7.3
2017-04-16T01:13:56.530Z,7.3
2017-04-16T01:14:58.867Z,7.3
2017-04-16T01:16:01.206Z,7.3
2017-04-16T01:17:04.048Z,7.3
2017-04-16T01:18:06.250Z,7.3
2017-04-16T01:19:09.346Z,7.3
2017-04-16T01:20:11.683Z,7.3
2017-04-16T01:21:14.386Z,7.3
2017-04-16T01:22:17.221Z,7.3
2017-04-16T01:23:19.424Z,7.3
2017-04-16T01:24:22.415Z,7.3
2017-04-16T01:25:24.746Z,7.2
2017-04-16T01:26:27.582Z,7.2
2017-04-16T01:27:29.920Z,7.1
2017-04-16T01:28:32.763Z,7
2017-04-16T01:29:35.905Z,7
2017-04-16T01:30:38.105Z,7.1
2017-04-16T01:31:40.443Z,7.1
2017-04-16T01:32:43.291Z,7.1
2017-04-16T01:33:45.629Z,7
2017-04-16T01:34:48.773Z,7
2017-04-16T01:35:51.110Z,7
2017-04-16T01:37:56.219Z,7
2017-04-16T01:38:59.077Z,7
2017-04-16T01:40:01.719Z,6.9
2017-04-16T01:42:06.460Z,6.9
2017-04-16T01:43:09.303Z,6.9
2017-04-16T01:44:11.641Z,6.9
2017-04-16T01:45:14.781Z,6.8
2017-04-16T01:46:17.116Z,6.9
2017-04-16T01:47:19.321Z,6.9
2017-04-16T01:48:22.021Z,6.8
2017-04-16T01:49:24.866Z,6.8
2017-04-16T01:50:27.961Z,6.8
2017-04-16T01:51:30.297Z,6.8
2017-04-16T01:52:32.637Z,6.8
2017-04-16T01:53:35.482Z,6.8
2017-04-16T01:54:37.841Z,6.8
2017-04-16T01:55:40.979Z,6.8
2017-04-16T01:56:43.317Z,6.8
2017-04-16T01:57:45.656Z,6.8
2017-04-16T01:58:48.500Z,6.7
2017-04-16T01:59:50.836Z,6.6
2017-04-16T02:00:53.977Z,6.6
2017-04-16T02:01:56.315Z,6.6
2017-04-16T02:02:58.652Z,6.6
2017-04-16T02:04:01.489Z,6.7
2017-04-16T02:05:03.694Z,6.8
2017-04-16T02:07:09.762Z,6.7
2017-04-16T02:08:12.097Z,6.7
2017-04-16T02:10:16.909Z,6.6
2017-04-16T02:11:19.747Z,6.6
2017-04-16T02:12:22.247Z,6.7
2017-04-16T02:13:24.948Z,6.7
2017-04-16T02:14:27.285Z,6.7
2017-04-16T02:16:32.529Z,6.6
2017-04-16T02:17:35.622Z,6.6
2017-04-16T02:18:37.823Z,6.6
2017-04-16T02:19:40.527Z,6.6
2017-04-16T02:20:43.373Z,6.5
2017-04-16T02:21:45.663Z,6.6
2017-04-16T02:22:48.619Z,6.6
2017-04-16T02:23:50.959Z,6.6
2017-04-16T02:24:53.807Z,6.5
2017-04-16T02:25:56.145Z,6.5
2017-04-16T02:26:58.985Z,6.5
2017-04-16T02:28:01.627Z,6.5
2017-04-16T02:29:03.971Z,6.4
2017-04-16T02:30:06.678Z,6.5
2017-04-16T02:31:09.009Z,6.5
2017-04-16T02:33:14.510Z,6.4
2017-04-16T02:34:16.733Z,6.4
2017-04-16T02:35:19.571Z,6.4
2017-04-16T02:37:24.824Z,6.5
2017-04-16T02:38:27.787Z,6.5
2017-04-16T02:39:29.851Z,6.5
2017-04-16T02:40:32.712Z,6.5
2017-04-16T02:41:35.056Z,6.4
2017-04-16T02:42:37.898Z,6.4
2017-04-16T02:43:40.555Z,6.4
2017-04-16T02:44:42.890Z,6.4
2017-04-16T02:45:45.728Z,6.4
2017-04-16T02:46:47.927Z,6.4
2017-04-16T02:47:50.771Z,6.3
2017-04-16T02:48:53.786Z,6.3
2017-04-16T02:49:56.122Z,6.3
2017-04-16T02:50:58.631Z,6.3
2017-04-16T02:52:01.470Z,6.3
2017-04-16T02:53:03.814Z,6.3
2017-04-16T02:54:06.963Z,6.3
2017-04-16T02:55:09.165Z,6.3
2017-04-16T02:56:11.566Z,6.2
2017-04-16T02:57:14.400Z,6.1
2017-04-16T02:58:16.735Z,6.2
2017-04-16T03:00:22.276Z,6.1
2017-04-16T03:01:24.610Z,6.1
2017-04-16T03:02:28.009Z,6.1
2017-04-16T03:03:29.843Z,6.1
2017-04-16T03:04:32.697Z,6.2
2017-04-16T03:05:35.456Z,6.1
2017-04-16T03:06:37.796Z,6.1
2017-04-16T03:07:40.137Z,6.1
2017-04-16T03:08:42.980Z,6.1
2017-04-16T03:09:45.316Z,6.1
2017-04-16T03:11:50.808Z,6.1
2017-04-16T03:12:53.149Z,6.1
2017-04-16T03:13:56.550Z,6.1
2017-04-16T03:14:58.946Z,6.1
2017-04-16T03:16:01.282Z,6.1
2017-04-16T03:17:03.867Z,6
2017-04-16T03:18:06.458Z,6
2017-04-16T03:19:08.792Z,6
2017-04-16T03:21:13.939Z,6
2017-04-16T03:22:17.027Z,6
2017-04-16T03:23:19.428Z,6
2017-04-16T03:24:21.776Z,6
2017-04-16T03:25:24.616Z,6
2017-04-16T03:26:26.951Z,6
2017-04-16T03:27:30.043Z,6
2017-04-16T03:28:32.392Z,5.9
2017-04-16T03:29:34.459Z,5.8
2017-04-16T03:30:37.032Z,5.9
2017-04-16T03:31:39.873Z,5.9
2017-04-16T03:32:42.966Z,5.9
2017-04-16T03:33:45.304Z,5.8
2017-04-16T03:34:47.641Z,5.8
2017-04-16T03:35:50.485Z,5.8
2017-04-16T03:36:52.820Z,5.8
2017-04-16T03:37:55.961Z,5.8
2017-04-16T03:38:58.297Z,5.8
2017-04-16T03:40:00.635Z,5.8
2017-04-16T03:41:03.473Z,5.8
2017-04-16T03:42:05.813Z,5.8
2017-04-16T03:43:08.951Z,5.8
2017-04-16T03:44:11.295Z,5.8
2017-04-16T03:45:13.630Z,5.7
2017-04-16T03:46:16.471Z,5.7
2017-04-16T03:47:18.678Z,5.7
2017-04-16T03:48:21.820Z,5.8
2017-04-16T03:50:26.568Z,5.7
2017-04-16T03:51:29.407Z,5.7
2017-04-16T03:52:31.742Z,5.7
2017-04-16T03:53:34.887Z,5.6
2017-04-16T03:54:36.723Z,5.6
2017-04-16T03:55:39.562Z,5.7
2017-04-16T03:56:41.901Z,5.6
2017-04-16T03:57:44.743Z,5.6
2017-04-16T03:58:47.335Z,5.6
2017-04-16T03:59:49.820Z,5.6
2017-04-16T04:00:52.529Z,5.5
2017-04-16T04:01:54.866Z,5.6
2017-04-16T04:02:57.704Z,5.6
2017-04-16T04:04:00.310Z,5.6
2017-04-16T04:05:02.646Z,5.6
2017-04-16T04:06:05.352Z,5.5
2017-04-16T04:07:07.692Z,5.6
2017-04-16T04:08:10.531Z,5.6
2017-04-16T04:09:13.117Z,5.5
2017-04-16T04:10:15.453Z,5.6
2017-04-16T04:11:18.289Z,5.6
2017-04-16T04:12:20.627Z,5.6
2017-04-16T04:13:23.863Z,5.6
2017-04-16T04:14:26.506Z,5.5
2017-04-16T04:15:28.706Z,5.6
2017-04-16T04:16:31.038Z,5.6
2017-04-16T04:17:33.906Z,5.6
2017-04-16T04:18:36.259Z,5.6
2017-04-16T04:19:39.217Z,5.6
2017-04-16T04:20:41.555Z,5.6
2017-04-16T04:21:43.898Z,5.6
2017-04-16T04:23:49.009Z,5.5
2017-04-16T04:24:52.156Z,5.5
2017-04-16T04:25:54.360Z,5.5
2017-04-16T04:26:57.367Z,5.5
2017-04-16T04:29:02.104Z,5.5
2017-04-16T04:30:05.247Z,5.5
2017-04-16T04:31:07.584Z,5.5
2017-04-16T04:32:09.923Z,5.4
2017-04-16T04:33:12.766Z,5.4
2017-04-16T04:34:15.105Z,5.5
2017-04-16T04:35:17.741Z,5.3
2017-04-16T04:36:20.078Z,5.4
2017-04-16T04:37:22.918Z,5.4
2017-04-16T04:38:25.255Z,5.4
2017-04-16T04:39:28.100Z,5.4
2017-04-16T04:40:31.165Z,5.4
2017-04-16T04:41:32.993Z,5.5
2017-04-16T04:42:36.398Z,5.5
2017-04-16T04:43:38.230Z,5.5
2017-04-16T04:45:43.727Z,5.5
2017-04-16T04:46:46.065Z,5.5
2017-04-16T04:47:48.907Z,5.5
2017-04-16T04:48:51.244Z,5.5
2017-04-16T04:49:53.452Z,5.5
2017-04-16T04:50:56.542Z,5.6
2017-04-16T04:51:58.881Z,5.6
2017-04-16T04:53:01.721Z,5.6
2017-04-16T04:54:04.054Z,5.6
2017-04-16T04:55:06.587Z,5.6
2017-04-16T04:56:09.545Z,5.6
2017-04-16T04:57:11.881Z,5.7
2017-04-16T04:58:14.726Z,5.7
2017-04-16T04:59:17.063Z,5.7
2017-04-16T05:00:19.899Z,5.6
2017-04-16T05:01:23.032Z,5.7
2017-04-16T05:02:24.867Z,5.7
2017-04-16T05:03:27.209Z,5.7
2017-04-16T05:05:32.453Z,5.7
2017-04-16T05:06:35.540Z,5.7
2017-04-16T05:07:37.918Z,5.7
2017-04-16T05:08:40.256Z,5.7
2017-04-16T05:09:43.094Z,5.7
2017-04-16T05:10:45.424Z,5.7
2017-04-16T05:11:48.568Z,5.7
2017-04-16T05:13:53.175Z,5.8
2017-04-16T05:14:56.018Z,5.8
2017-04-16T05:15:58.350Z,5.8
2017-04-16T05:17:01.444Z,5.8
2017-04-16T05:18:03.785Z,5.8
2017-04-16T05:19:06.122Z,5.8
2017-04-16T05:20:08.966Z,5.8
2017-04-16T05:21:11.301Z,5.8
2017-04-16T05:22:14.399Z,5.8
2017-04-16T05:23:16.736Z,5.8
2017-04-16T05:24:19.075Z,5.8
2017-04-16T05:25:21.410Z,5.9
2017-04-16T05:26:24.247Z,5.9
2017-04-16T05:27:26.889Z,6
2017-04-16T05:28:29.225Z,6
2017-04-16T05:29:32.062Z,6.1
2017-04-16T05:30:34.397Z,6.1
2017-04-16T05:31:37.099Z,6.2
2017-04-16T05:32:40.247Z,6.2
2017-04-16T05:33:42.998Z,6.3
2017-04-16T05:34:44.908Z,6.2
2017-04-16T05:35:47.749Z,6.2
2017-04-16T05:36:50.086Z,6.2
2017-04-16T05:37:53.229Z,6.2
2017-04-16T05:38:55.071Z,6.2
2017-04-16T05:39:58.339Z,6.1
2017-04-16T05:41:00.680Z,6.1
2017-04-16T05:42:03.018Z,6.1
2017-04-16T05:43:06.163Z,6.1
2017-04-16T05:44:07.997Z,6.1
2017-04-16T05:45:10.702Z,6.1
2017-04-16T05:47:15.948Z,6.2
2017-04-16T05:48:19.345Z,6.3
2017-04-16T05:49:21.185Z,6.3
2017-04-16T05:50:24.025Z,6.3
2017-04-16T05:51:26.362Z,6.4
2017-04-16T05:52:29.206Z,6.5
2017-04-16T05:53:31.799Z,6.5
2017-04-16T05:54:34.135Z,6.6
2017-04-16T05:55:36.976Z,6.6
2017-04-16T05:57:41.731Z,6.6
2017-04-16T05:58:44.745Z,6.5
2017-04-16T05:59:47.082Z,6.5
2017-04-16T06:00:49.790Z,6.5
2017-04-16T06:01:52.161Z,6.5
2017-04-16T06:02:55.058Z,6.5
2017-04-16T06:03:57.647Z,6.5
2017-04-16T06:04:59.980Z,6.5
2017-04-16T06:06:02.688Z,6.5
2017-04-16T06:07:05.534Z,6.6
2017-04-16T06:08:07.733Z,6.6
2017-04-16T06:09:10.695Z,6.6
2017-04-16T06:10:13.028Z,6.6
2017-04-16T06:12:18.274Z,6.6
2017-04-16T06:13:21.116Z,6.6
2017-04-16T06:15:26.162Z,6.6
2017-04-16T06:16:28.495Z,6.6
2017-04-16T06:17:31.330Z,6.6
2017-04-16T06:18:33.671Z,6.6
2017-04-16T06:20:39.266Z,6.6
2017-04-16T06:21:41.605Z,6.6
2017-04-16T06:22:44.444Z,6.7
2017-04-16T06:23:46.786Z,6.8
2017-04-16T06:24:49.628Z,6.9
2017-04-16T06:25:52.306Z,7
2017-04-16T06:26:54.644Z,7
2017-04-16T06:27:57.489Z,7.1
2017-04-16T06:28:59.558Z,7.1
2017-04-16T06:30:02.404Z,7.2
2017-04-16T06:31:05.545Z,7.3
2017-04-16T06:32:07.882Z,7.3
2017-04-16T06:33:10.220Z,7.4
2017-04-16T06:35:15.470Z,7.5
2017-04-16T06:36:18.644Z,7.5
2017-04-16T06:37:20.980Z,7.6
2017-04-16T06:38:23.528Z,7.6
2017-04-16T06:39:25.592Z,7.6
2017-04-16T06:40:28.794Z,7.6
2017-04-16T06:41:31.299Z,7.5
2017-04-16T06:42:33.637Z,7.6
2017-04-16T06:43:36.482Z,7.6
2017-04-16T06:44:38.835Z,7.6
2017-04-16T06:45:41.736Z,7.6
2017-04-16T06:46:44.378Z,7.5
2017-04-16T06:47:46.729Z,7.5
2017-04-16T06:48:49.574Z,7.5
2017-04-16T06:49:52.416Z,7.5
2017-04-16T06:50:54.774Z,7.5
2017-04-16T06:51:57.881Z,7.5
2017-04-16T06:53:00.083Z,7.4
2017-04-16T06:54:02.479Z,7.4
2017-04-16T06:55:05.319Z,7.4
2017-04-16T06:56:07.657Z,7.4
2017-04-16T06:57:10.749Z,7.4
2017-04-16T06:58:13.099Z,7.5
2017-04-16T06:59:15.803Z,7.5
2017-04-16T07:00:18.145Z,7.5
2017-04-16T07:01:20.981Z,7.5
2017-04-16T07:02:23.998Z,7.5
2017-04-16T07:03:26.350Z,7.5
2017-04-16T07:04:28.691Z,7.5
2017-04-16T07:05:31.538Z,7.5
2017-04-16T07:06:33.741Z,7.5
2017-04-16T07:07:36.847Z,7.5
2017-04-16T07:09:42.092Z,7.5
2017-04-16T07:10:44.297Z,7.5
2017-04-16T07:11:47.140Z,7.5
2017-04-16T07:12:50.231Z,7.6
2017-04-16T07:13:52.438Z,7.6
2017-04-16T07:14:55.283Z,7.6
2017-04-16T07:15:57.614Z,7.6
2017-04-16T07:18:03.163Z,7.8
2017-04-16T07:19:05.500Z,7.9
2017-04-16T07:20:08.344Z,8
2017-04-16T07:21:10.409Z,8.1
2017-04-16T07:22:13.247Z,8.1
2017-04-16T07:23:16.396Z,8.1
2017-04-16T07:24:18.732Z,8.1
2017-04-16T07:25:21.070Z,8.1
2017-04-16T07:26:23.908Z,8.1
2017-04-16T07:27:26.749Z,8.1
2017-04-16T07:28:29.400Z,8.1
2017-04-16T07:29:31.739Z,8.1
2017-04-16T07:30:34.576Z,8.2
2017-04-16T07:31:36.914Z,8.2
2017-04-16T07:32:39.754Z,8.3
2017-04-16T07:33:42.341Z,8.3
2017-04-16T07:34:45.186Z,8.3
2017-04-16T07:35:47.521Z,8.3
2017-04-16T07:36:50.363Z,8.2
2017-04-16T07:37:52.703Z,8.3
2017-04-16T07:38:55.822Z,8.3
2017-04-16T07:41:00.578Z,8.2
2017-04-16T07:42:03.416Z,8.3
2017-04-16T07:43:06.257Z,8.3
2017-04-16T07:44:08.902Z,8.3
2017-04-16T07:45:11.237Z,8.3
2017-04-16T07:46:14.075Z,8.3
2017-04-16T07:47:16.406Z,8.3
2017-04-16T07:48:19.289Z,8.3
2017-04-16T07:49:21.924Z,8.3
2017-04-16T07:50:24.496Z,8.2
2017-04-16T07:51:26.837Z,8.1
2017-04-16T07:52:29.677Z,8.1
2017-04-16T07:53:32.520Z,8
2017-04-16T07:54:35.159Z,8
2017-04-16T07:55:37.572Z,8
2017-04-16T07:56:40.419Z,8
2017-04-16T07:57:42.759Z,8
2017-04-16T07:58:45.603Z,8
2017-04-16T07:59:48.191Z,8
2017-04-16T08:00:50.523Z,8
2017-04-16T08:02:55.781Z,8
2017-04-16T08:03:58.628Z,8
2017-04-16T08:05:01.776Z,8
2017-04-16T08:06:03.628Z,8
2017-04-16T08:07:06.465Z,8
2017-04-16T08:08:09.350Z,7.9
2017-04-16T08:09:11.723Z,7.9
2017-04-16T08:10:15.384Z,8
2017-04-16T08:11:17.223Z,8
2017-04-16T08:12:19.426Z,8
2017-04-16T08:13:22.134Z,8
2017-04-16T08:14:24.975Z,8
2017-04-16T08:15:27.570Z,8
2017-04-16T08:16:29.913Z,8
2017-04-16T08:17:32.756Z,8
2017-04-16T08:18:35.595Z,8
2017-04-16T08:19:37.938Z,8
2017-04-16T08:21:43.484Z,8.1
2017-04-16T08:22:45.822Z,8.1
2017-04-16T08:23:48.660Z,8.2
2017-04-16T08:24:51.000Z,8.3
2017-04-16T08:25:53.838Z,8.3
2017-04-16T08:26:56.474Z,8.3
2017-04-16T08:27:58.815Z,8.3
2017-04-16T08:29:01.659Z,8.3
2017-04-16T08:30:04.512Z,8.3
2017-04-16T08:31:06.847Z,8.3
2017-04-16T08:32:09.892Z,8.4
2017-04-16T08:33:12.481Z,8.4
2017-04-16T08:34:14.548Z,8.5
2017-04-16T08:35:17.202Z,8.6
2017-04-16T08:36:20.044Z,8.6
2017-04-16T08:37:23.003Z,8.6
2017-04-16T08:38:25.347Z,8.6
2017-04-16T08:39:28.186Z,8.6
2017-04-16T08:41:33.435Z,8.6
2017-04-16T08:42:36.078Z,8.6
2017-04-16T08:43:38.419Z,8.6
2017-04-16T08:44:41.259Z,8.7
2017-04-16T08:45:43.910Z,8.8
2017-04-16T08:46:46.555Z,8.8
2017-04-16T08:47:49.141Z,8.8
2017-04-16T08:48:51.483Z,8.8
2017-04-16T08:49:54.350Z,8.7
2017-04-16T08:50:56.687Z,8.6
2017-04-16T08:51:59.526Z,8.6
2017-04-16T08:53:02.670Z,8.6
2017-04-16T08:54:05.010Z,8.6
2017-04-16T08:55:07.357Z,8.6
2017-04-16T08:56:10.198Z,8.5
2017-04-16T08:57:12.536Z,8.5
2017-04-16T08:58:15.637Z,8.5
2017-04-16T08:59:18.583Z,8.4
2017-04-16T09:00:20.415Z,8.4
2017-04-16T09:01:23.257Z,8.4
2017-04-16T09:02:26.101Z,8.4
2017-04-16T09:03:28.698Z,8.4
2017-04-16T09:04:31.039Z,8.5
2017-04-16T09:05:33.879Z,8.5
2017-04-16T09:06:36.209Z,8.5
2017-04-16T09:07:39.060Z,8.6
2017-04-16T09:08:42.207Z,8.6
2017-04-16T09:09:44.407Z,8.7
2017-04-16T09:10:46.745Z,8.7
2017-04-16T09:11:49.588Z,8.7
2017-04-16T09:12:52.304Z,8.7
2017-04-16T09:13:54.942Z,8.6
2017-04-16T09:14:57.282Z,8.6
2017-04-16T09:15:59.984Z,8.6
2017-04-16T09:17:02.825Z,8.6
2017-04-16T09:18:05.164Z,8.5
2017-04-16T09:19:08.306Z,8.5
2017-04-16T09:20:10.638Z,8.5
2017-04-16T09:21:13.482Z,8.5
2017-04-16T09:22:15.877Z,8.5
2017-04-16T09:23:18.720Z,8.4
2017-04-16T09:24:21.359Z,8.4
2017-04-16T09:25:23.696Z,8.3
2017-04-16T09:26:26.567Z,8.3
2017-04-16T09:27:28.780Z,8.3
2017-04-16T09:28:31.631Z,8.3
2017-04-16T09:29:34.722Z,8.3
2017-04-16T09:30:37.054Z,8.2
2017-04-16T09:31:39.895Z,8.2
2017-04-16T09:32:42.233Z,8.2
2017-04-16T09:33:45.074Z,8.2
2017-04-16T09:34:47.664Z,8.2
2017-04-16T09:35:50.009Z,8.3
2017-04-16T09:36:52.852Z,8.3
2017-04-16T09:37:55.197Z,8.3
2017-04-16T09:38:58.050Z,8.4
2017-04-16T09:40:01.475Z,8.5
2017-04-16T09:41:03.334Z,8.5
2017-04-16T09:42:06.181Z,8.5
2017-04-16T09:43:08.524Z,8.5
2017-04-16T09:44:11.236Z,8.5
2017-04-16T09:45:14.375Z,8.6
2017-04-16T09:46:16.710Z,8.6
2017-04-16T09:47:19.048Z,8.6
2017-04-16T09:49:24.161Z,8.7
2017-04-16T09:51:29.704Z,8.8
2017-04-16T09:52:32.040Z,8.8
2017-04-16T09:53:34.758Z,8.8
2017-04-16T09:54:37.602Z,8.8
2017-04-16T09:55:39.935Z,8.8
2017-04-16T09:56:42.941Z,8.8
2017-04-16T09:57:45.645Z,8.8
2017-04-16T09:58:47.979Z,8.8
2017-04-16T09:59:50.827Z,8.8
2017-04-16T10:00:53.173Z,8.8
2017-04-16T10:01:56.268Z,8.9
2017-04-16T10:02:58.608Z,8.8
2017-04-16T10:04:01.450Z,8.8
2017-04-16T10:06:06.843Z,8.9
2017-04-16T10:07:09.428Z,9
2017-04-16T10:08:11.765Z,9
2017-04-16T10:09:14.608Z,9
2017-04-16T10:10:16.946Z,9
2017-04-16T10:11:19.796Z,9
2017-04-16T10:12:23.040Z,9
2017-04-16T10:13:24.874Z,9.1
2017-04-16T10:14:27.718Z,9.1
2017-04-16T10:16:32.827Z,9.1
2017-04-16T10:17:35.974Z,9.1
2017-04-16T10:18:38.320Z,9.1
2017-04-16T10:19:40.659Z,9.1
2017-04-16T10:21:45.907Z,9.1
2017-04-16T10:22:48.867Z,9.1
2017-04-16T10:23:51.205Z,9.1
2017-04-16T10:24:54.036Z,9.1
2017-04-16T10:25:56.378Z,9.1
2017-04-16T10:26:59.217Z,9.1
2017-04-16T10:28:02.313Z,9.1
2017-04-16T10:29:04.649Z,9.1
2017-04-16T10:30:06.992Z,9.1
2017-04-16T10:31:09.697Z,9
2017-04-16T10:32:12.266Z,9
2017-04-16T10:33:15.542Z,9
2017-04-16T10:34:18.049Z,8.9
2017-04-16T10:35:20.389Z,8.8
2017-04-16T10:36:23.232Z,8.6
2017-04-16T10:37:25.572Z,7.2
2017-04-16T10:38:28.675Z,6
2017-04-16T10:39:31.011Z,4.3
2017-04-16T10:40:33.720Z,4.9
2017-04-16T10:41:36.068Z,5.1
2017-04-16T10:42:38.913Z,5.5
2017-04-16T10:43:41.562Z,5.6
2017-04-16T10:44:43.899Z,5.8
2017-04-16T10:45:46.734Z,6
2017-04-16T10:46:49.070Z,6.1
2017-04-16T10:47:52.087Z,6.2
2017-04-16T10:48:54.542Z,6.2
2017-04-16T10:49:56.878Z,6.2
2017-04-16T10:50:59.722Z,6.1
2017-04-16T10:52:02.057Z,6.3
2017-04-16T10:54:07.454Z,6.5
2017-04-16T10:55:10.165Z,6.6
2017-04-16T10:56:12.500Z,6.7
2017-04-16T10:57:15.337Z,6.8
2017-04-16T10:58:17.678Z,6.9
2017-04-16T10:59:20.774Z,6.9
2017-04-16T11:00:23.110Z,6.9
2017-04-16T11:01:25.450Z,7
2017-04-16T11:02:28.541Z,7
2017-04-16T11:03:30.897Z,7
2017-04-16T11:04:33.536Z,7.1
2017-04-16T11:05:35.868Z,7.1
2017-04-16T11:06:38.710Z,7.2
2017-04-16T11:07:40.782Z,7.2
2017-04-16T11:08:44.128Z,7.2
2017-04-16T11:09:46.768Z,7.1
2017-04-16T11:10:49.101Z,7.1
2017-04-16T11:11:51.939Z,7.2
2017-04-16T11:12:54.277Z,7.1
2017-04-16T11:13:57.119Z,7.1
2017-04-16T11:14:59.759Z,7.1
2017-04-16T11:16:02.236Z,7.1
2017-04-16T11:17:04.646Z,7.1
2017-04-16T11:18:07.492Z,7.2
2017-04-16T11:19:10.206Z,7.3
2017-04-16T11:20:12.799Z,7.3
2017-04-16T11:21:15.142Z,7.3
2017-04-16T11:22:17.986Z,7.4
2017-04-16T11:23:20.330Z,7.4
2017-04-16T11:24:23.032Z,7.4
2017-04-16T11:25:25.989Z,7.5
2017-04-16T11:26:28.342Z,7.5
2017-04-16T11:27:30.690Z,7.5
2017-04-16T11:28:33.531Z,7.5
2017-04-16T11:29:36.465Z,7.3
2017-04-16T11:30:39.055Z,7.3
2017-04-16T11:31:41.394Z,7.4
2017-04-16T11:32:44.101Z,7.4
2017-04-16T11:33:46.438Z,7.5
2017-04-16T11:34:49.280Z,7.5
2017-04-16T11:35:51.921Z,7.6
2017-04-16T11:36:54.263Z,7.6
2017-04-16T11:37:57.102Z,7.6
2017-04-16T11:38:59.440Z,7.7
2017-04-16T11:40:02.284Z,7.6
2017-04-16T11:41:05.427Z,7.6
2017-04-16T11:42:07.633Z,7.6
2017-04-16T11:43:09.979Z,7.5
2017-04-16T11:44:12.821Z,7.5
2017-04-16T11:45:15.158Z,7.4
2017-04-16T11:46:18.303Z,7.5
2017-04-16T11:47:21.205Z,7.5
2017-04-16T11:48:23.045Z,7.5
2017-04-16T11:49:25.893Z,7.6
2017-04-16T11:50:28.730Z,7.6
2017-04-16T11:51:31.365Z,7.6
2017-04-16T11:52:33.565Z,7.6
2017-04-16T11:53:36.407Z,7.5
2017-04-16T11:54:38.737Z,7.6
2017-04-16T11:55:41.445Z,7.4
2017-04-16T11:56:44.588Z,7.1
2017-04-16T11:57:46.833Z,7.3
2017-04-16T11:59:52.077Z,7.2
2017-04-16T12:00:54.917Z,7.2
2017-04-16T12:01:57.555Z,7.1
2017-04-16T12:02:59.897Z,7.1
2017-04-16T12:04:02.805Z,7.2
2017-04-16T12:05:05.140Z,7
2017-04-16T12:06:07.578Z,7.1
2017-04-16T12:07:10.720Z,7.2
2017-04-16T12:08:13.055Z,7.3
2017-04-16T12:09:15.893Z,7.3
2017-04-16T12:10:18.312Z,7.3
2017-04-16T12:11:20.731Z,7.4
2017-04-16T12:12:23.887Z,7.4
2017-04-16T12:13:26.228Z,7.4
2017-04-16T12:14:28.566Z,7.3
2017-04-16T12:15:31.405Z,7.4
2017-04-16T12:16:33.745Z,7.4
2017-04-16T12:17:36.887Z,7.5
2017-04-16T12:18:39.087Z,7.5
2017-04-16T12:19:41.935Z,7.4
2017-04-16T12:20:44.272Z,7.4
2017-04-16T12:21:47.110Z,7.5
2017-04-16T12:22:50.073Z,7.5
2017-04-16T12:23:52.277Z,7.5
2017-04-16T12:24:55.116Z,7.5
2017-04-16T12:25:57.460Z,7.5
2017-04-16T12:27:00.299Z,7.6
2017-04-16T12:28:02.885Z,7.5
2017-04-16T12:30:08.133Z,7.6
2017-04-16T12:31:10.469Z,7.6
2017-04-16T12:33:16.013Z,7.6
2017-04-16T12:34:18.351Z,7.7
2017-04-16T12:35:21.191Z,7.7
2017-04-16T12:36:23.527Z,7.7
2017-04-16T12:37:26.236Z,7.8
2017-04-16T12:38:29.119Z,7.8
2017-04-16T12:39:31.458Z,7.8
2017-04-16T12:40:34.298Z,7.6
2017-04-16T12:41:37.003Z,7.6
2017-04-16T12:42:39.345Z,7.6
2017-04-16T12:43:42.489Z,7.6
2017-04-16T12:44:44.868Z,7.6
2017-04-16T12:45:47.204Z,7.6
2017-04-16T12:46:50.041Z,7.6
2017-04-16T12:47:53.446Z,7.6
2017-04-16T12:48:55.445Z,7.5
2017-04-16T12:49:57.782Z,7.5
2017-04-16T12:51:00.795Z,7.5
2017-04-16T12:52:03.152Z,7.5
2017-04-16T12:53:05.860Z,7.5
2017-04-16T12:54:08.505Z,7.5
2017-04-16T12:55:10.841Z,7.6
2017-04-16T12:56:13.739Z,7.6
2017-04-16T12:57:16.076Z,7.6
2017-04-16T12:58:18.916Z,7.5
2017-04-16T12:59:21.420Z,7.6
2017-04-16T13:00:24.259Z,7.6
2017-04-16T13:01:26.593Z,7.5
2017-04-16T13:02:29.441Z,7.5
2017-04-16T13:03:31.781Z,7.6
2017-04-16T13:04:34.965Z,7.6
2017-04-16T13:05:37.299Z,7.6
2017-04-16T13:06:39.635Z,7.6
2017-04-16T13:07:42.479Z,7.6
2017-04-16T13:08:45.321Z,7.5
2017-04-16T13:09:53.049Z,7.6
2017-04-16T13:10:50.347Z,7.6
2017-04-16T13:11:53.187Z,7.6
2017-04-16T13:12:55.524Z,7.6
2017-04-16T13:13:57.882Z,7.6
2017-04-16T13:15:01.400Z,7.7
2017-04-16T13:16:03.605Z,7.6
2017-04-16T13:17:05.941Z,7.6
2017-04-16T13:18:08.775Z,7.6
2017-04-16T13:19:11.482Z,7.6
2017-04-16T13:20:14.071Z,7.6
2017-04-16T13:21:16.407Z,7.6
2017-04-16T13:22:19.252Z,7.6
2017-04-16T13:23:22.092Z,7.6
2017-04-16T13:25:27.635Z,7.7
2017-04-16T13:27:32.241Z,7.7
2017-04-16T13:28:35.076Z,7.8
2017-04-16T13:29:37.414Z,7.8
2017-04-16T13:30:40.558Z,7.8
2017-04-16T13:31:43.120Z,7.8
2017-04-16T13:32:45.478Z,7.9
2017-04-16T13:33:48.318Z,7.9
2017-04-16T13:34:50.653Z,7.9
2017-04-16T13:35:53.745Z,8
2017-04-16T13:36:56.078Z,8
2017-04-16T13:37:58.421Z,8
2017-04-16T13:39:01.123Z,8
2017-04-16T13:40:03.967Z,8
2017-04-16T13:41:06.605Z,8
2017-04-16T13:42:08.944Z,8
2017-04-16T13:43:11.782Z,8.1
2017-04-16T13:44:14.126Z,8.1
2017-04-16T13:45:16.965Z,8.1
2017-04-16T13:46:19.823Z,8.1
2017-04-16T13:47:22.022Z,8.2
2017-04-16T13:48:24.865Z,8.3
2017-04-16T13:49:27.708Z,8.3
2017-04-16T13:50:30.040Z,8.3
2017-04-16T13:51:32.993Z,8.3
2017-04-16T13:52:35.329Z,8.3
2017-04-16T13:53:38.175Z,8.2
2017-04-16T13:55:43.425Z,8.2
2017-04-16T13:56:46.009Z,8.2
2017-04-16T13:57:48.349Z,8.2
2017-04-16T13:58:51.244Z,8.2
2017-04-16T13:59:53.580Z,8.2
2017-04-16T14:00:56.282Z,8.3
2017-04-16T14:03:01.827Z,8.3
2017-04-16T14:04:04.167Z,8.3
2017-04-16T14:05:07.005Z,8.4
2017-04-16T14:06:09.848Z,8.5
2017-04-16T14:07:12.190Z,8.5
2017-04-16T14:08:15.334Z,8.5
2017-04-16T14:09:17.539Z,8.4
2017-04-16T14:10:20.379Z,8.4
2017-04-16T14:11:22.585Z,8.3
2017-04-16T14:12:25.448Z,8.3
2017-04-16T14:13:28.593Z,8.4
2017-04-16T14:14:30.298Z,8.5
2017-04-16T14:15:33.139Z,8.4
2017-04-16T14:16:35.980Z,8.4
2017-04-16T14:17:38.315Z,8.5
2017-04-16T14:18:41.408Z,8.5
2017-04-16T14:19:43.750Z,8.5
2017-04-16T14:20:46.594Z,8.6
2017-04-16T14:21:48.930Z,8.6
2017-04-16T14:22:51.770Z,8.7
2017-04-16T14:23:54.406Z,8.7
2017-04-16T14:24:56.738Z,8.8
2017-04-16T14:25:59.619Z,9
2017-04-16T14:27:02.204Z,9
2017-04-16T14:28:05.050Z,9
2017-04-16T14:29:07.690Z,9
2017-04-16T14:30:10.031Z,9
2017-04-16T14:31:12.886Z,9
2017-04-16T14:32:15.221Z,8.9
2017-04-16T14:33:18.067Z,8.9
2017-04-16T14:34:21.211Z,8.9
2017-04-16T14:35:23.551Z,8.9
2017-04-16T14:36:25.888Z,8.9
2017-04-16T14:37:28.722Z,8.9
2017-04-16T14:38:31.066Z,8.9
2017-04-16T14:39:34.208Z,9
2017-04-16T14:40:36.555Z,9
2017-04-16T14:41:38.890Z,9
2017-04-16T14:42:41.738Z,9
2017-04-16T14:43:44.580Z,9
2017-04-16T14:44:47.737Z,9
2017-04-16T14:45:50.129Z,9.1
2017-04-16T14:46:52.467Z,9.1
2017-04-16T14:47:54.805Z,9.1
2017-04-16T14:48:57.640Z,9.1
2017-04-16T14:50:00.236Z,9.1
2017-04-16T14:51:02.579Z,9.1
2017-04-16T14:52:05.422Z,9.2
2017-04-16T14:53:08.131Z,9.2
2017-04-16T14:54:10.970Z,9.2
2017-04-16T14:55:13.608Z,9.2
2017-04-16T14:56:15.965Z,9.2
2017-04-16T14:57:18.803Z,9.1
2017-04-16T14:58:21.141Z,9.2
2017-04-16T14:59:23.859Z,9.3
2017-04-16T15:00:26.998Z,9.2
2017-04-16T15:01:29.345Z,9.1
2017-04-16T15:02:31.687Z,9.1
2017-04-16T15:03:34.526Z,9.1
2017-04-16T15:04:36.861Z,9.1
2017-04-16T15:05:40.102Z,9
2017-04-16T15:06:42.440Z,9.1
2017-04-16T15:07:44.772Z,9.1
2017-04-16T15:08:47.616Z,9.1
2017-04-16T15:09:50.459Z,9.1
2017-04-16T15:10:53.046Z,9.1
2017-04-16T15:11:55.294Z,9.1
2017-04-16T15:12:58.132Z,9.1
2017-04-16T15:14:00.971Z,9.2
2017-04-16T15:15:03.310Z,9.2